Flight Track Log - Related Links

Times and Time Zones

All times are in EST time to prevent confusion due to time zone crossing. See the CSN3233 flight status page for this flight to view local times or setup timezone preferences in your user account.

Time Position Orientation Groundspeed Altitude Reporting Facility
EST Latitude Longitude Course Direction KTS MPH feet Rate Location/Type
Sun 08:39:00 AM 25.1622 110.1424 121° Southeast  Level Estimated
Sun 08:39:22 AM 24.1620 111.2990 121° Southeast 423 487 24,300  Level FlightAware ADS-B
Sun 08:40:00 AM 25.1061 110.2456 121° Southeast  Level Estimated
Sun 08:40:13 AM 24.0820 111.3300 161° South 423 487 24,300  Level FlightAware ADS-B
Sun 08:41:14 AM 23.9860 111.3660 161° South 423 487 24,300  Level FlightAware ADS-B
Sun 08:41:50 AM 23.9290 111.3870 161° South 423 487 24,300  Level FlightAware ADS-B
Sun 08:42:38 AM 23.8540 111.4150 161° South 423 487 24,300  Level FlightAware ADS-B
Sun 08:43:14 AM 23.7970 111.4370 161° South 423 487 24,300 -3,176 Level FlightAware ADS-B
Sun 08:43:46 AM 23.6850 111.4030 196° South 378 435 20,700 -4,154 Descending FlightAware ADS-B
Sun 08:44:06 AM 23.6540 111.4090 170° South 378 435 20,700 -385 Level FlightAware ADS-B
Sun 08:45:04 AM 23.5500 111.4270 171° South 379 436 20,200 -702 Descending FlightAware ADS-B
Sun 08:45:40 AM 23.4880 111.4370 172° South 375 432 19,600 -1,026 Descending FlightAware ADS-B
Sun 08:46:20 AM 23.4190 111.4480 172° South 369 425 18,900 -558 Descending FlightAware ADS-B
Sun 08:47:06 AM 23.3540 111.4590 171° South 368 423 18,800 -1,059 Descending FlightAware ADS-B
Sun 08:47:28 AM 23.3070 111.4670 171° South 361 415 17,700 -1,629 Descending FlightAware ADS-B
Sun 08:48:16 AM 23.2500 111.5230 138° Southeast 355 409 16,900 -600 Descending FlightAware ADS-B
Sun 08:49:08 AM 23.2320 111.6150 102° East 352 405 16,700 -113 Descending FlightAware ADS-B
Sun 08:50:02 AM 23.2140 111.7090 102° East 355 409 16,700  Level FlightAware ADS-B
Sun 08:50:38 AM 23.2030 111.7710 101° East 358 412 16,700 -150 Level FlightAware ADS-B
Sun 08:51:22 AM 23.1890 111.8510 101° East 356 410 16,500 -500 Descending FlightAware ADS-B
Sun 08:51:50 AM 23.1800 111.8980 102° East 353 406 16,100 -1,000 Descending FlightAware ADS-B
Sun 08:52:22 AM 23.1700 111.9530 101° East 339 390 15,500 -1,105 Descending FlightAware ADS-B
Sun 08:53:06 AM 23.1570 112.0240 101° East 318 366 14,700 -1,129 Descending FlightAware ADS-B
Sun 08:53:47 AM 23.1470 112.0850 100° East 307 353 13,900 -500 Descending FlightAware ADS-B
Sun 08:54:54 AM 23.1510 112.1890 88° East 304 350 13,800 -56 Descending FlightAware ADS-B
Sun 08:55:35 AM 23.1530 112.2520 88° East 303 349 13,800  Level FlightAware ADS-B
Sun 08:56:09 AM 23.1570 112.3000 85° East 273 314 13,800  Level FlightAware ADS-B
Sun 08:56:49 AM 23.1640 112.3530 82° East 258 297 13,800  Level FlightAware ADS-B
Sun 08:57:10 AM 23.1680 112.3790 80° East 253 291 13,800 -237 Level FlightAware ADS-B
Sun 08:58:05 AM 23.1730 112.4500 86° East 249 287 13,500 -571 Descending FlightAware ADS-B
Sun 08:58:34 AM 23.1730 112.4840 90° East 251 289 13,000 -1,000 Descending FlightAware ADS-B
Sun 08:59:23 AM 23.1720 112.5480 91° East 247 284 12,200 -975 Descending FlightAware ADS-B
Sun 08:59:54 AM 23.1710 112.5850 92° East 245 282 11,700 -1,015 Descending FlightAware ADS-B
Sun 09:00:28 AM 23.1690 112.6280 93° East 241 277 11,100 -740 Descending FlightAware ADS-B
Sun 09:01:07 AM 23.1670 112.6740 93° East 232 267 10,800 -240 Descending FlightAware ADS-B
Sun 09:01:43 AM 23.1660 112.7160 91° East 235 270 10,800 -493 Level FlightAware ADS-B
Sun 09:02:20 AM 23.1640 112.7600 93° East 233 268 10,200 -1,014 Descending FlightAware ADS-B
Sun 09:02:54 AM 23.1630 112.7990 92° East 229 264 9,600 -1,043 Descending FlightAware ADS-B
Sun 09:03:29 AM 23.1600 112.8400 95° East 225 259 9,000 -1,043 Descending FlightAware ADS-B
Sun 09:04:03 AM 23.1590 112.8770 92° East 221 254 8,400 -1,167 Descending FlightAware ADS-B
Sun 09:04:41 AM 23.1570 112.9200 93° East 221 254 7,600 -1,184 Descending FlightAware ADS-B
Sun 09:05:19 AM 23.1550 112.9620 93° East 218 251 6,900 -973 Descending FlightAware ADS-B
Sun 09:05:55 AM 23.1520 113.0000 95° East 211 243 6,400 -938 Descending FlightAware ADS-B
Sun 09:06:23 AM 23.1510 113.0300 92° East 210 242 5,900 -1,031 Descending FlightAware ADS-B
Sun 09:06:59 AM 23.1480 113.0680 95° East 205 236 5,300 -1,024 Descending FlightAware ADS-B
Sun 09:07:45 AM 23.1450 113.1160 94° East 203 234 4,500 -1,026 Descending FlightAware ADS-B
Sun 09:08:15 AM 23.1440 113.1450 92° East 200 230 4,000 -737 Descending FlightAware ADS-B
Sun 09:08:42 AM 23.1420 113.1720 95° East 186 214 3,800 -405 Descending FlightAware ADS-B
Sun 09:09:29 AM 23.1670 113.2050 51° Northeast 182 209 3,500 -552 Descending FlightAware ADS-B
Sun 09:10:09 AM 23.1930 113.2250 35° Northeast 174 200 3,000 -720 Descending FlightAware ADS-B
Sun 09:10:44 AM 23.2190 113.2410 29° Northeast 183 211 2,600 -706 Descending FlightAware ADS-B
Sun 09:11:00 AM 23.2320 113.2440 12° North 183 211 2,400 -568 Descending FlightAware ADS-B
Sun 09:11:58 AM 23.2790 113.2570 14° North 170 196 1,900 -673 Descending FlightAware ADS-B
Sun 09:12:38 AM 23.3080 113.2650 14° North 151 174 1,300 -828 Descending FlightAware ADS-B
Sun 09:12:56 AM 23.3200 113.2680 13° North 149 171 1,100 -261 Descending FlightAware ADS-B
Sun 09:13:24 AM 23.3360 113.2730 16° North 149 171 1,100  Level FlightAware ADS-B
Sun 09:16:00 AM 23.3924 113.2988 23° Northeast  Level Estimated
Sun 09:17:00 AM 23.3924 113.2988 223° Southwest  Level Estimated
Sun 09:18:00 AM 23.3924 113.2988 223° Southwest  Level Estimated
Sun 09:19:00 AM 23.3924 113.2988 223° Southwest  Level Estimated
Sun 09:20:00 AM 23.3924 113.2988 223° Southwest  Level Estimated
Sun 09:21:00 AM 23.3924 113.2988 223° Southwest  Level Estimated
Sun 09:22:00 AM 23.3924 113.2988 223° Southwest  Level Estimated
Sun 09:23:00 AM 23.3924 113.2988 223° Southwest  Level Estimated
Sun 09:24:00 AM 23.3924 113.2988 223° Southwest  Level Estimated
Sun 09:25:00 AM 23.3924 113.2988 223° Southwest  Level Estimated
Sun 09:26:00 AM 23.3924 113.2988 223° Southwest  Level Estimated
Sun 09:27:00 AM 23.3924 113.2988 223° Southwest  Level Estimated
Sun 09:28:00 AM 23.3924 113.2988 223° Southwest  Level Estimated
Sun 09:29:00 AM 23.3924 113.2988 223° Southwest  Level Estimated
Sun 09:30:00 AM 23.3924 113.2988 223° Southwest  Level Estimated

Login

Don't have an account? Register now (free) for customized features, flight alerts, and more!